createdAt,value
2023-05-13T00:01:29.604Z,9.07
2023-05-13T00:06:39.400Z,7.93
2023-05-13T00:11:44.588Z,8.63
2023-05-13T00:16:49.740Z,8.20
2023-05-13T00:21:57.598Z,7.97
2023-05-13T00:27:06.025Z,8.23
2023-05-13T00:32:11.266Z,8.43
2023-05-13T00:37:19.239Z,9.30
2023-05-13T00:42:24.450Z,9.60
2023-05-13T00:47:29.459Z,7.93
2023-05-13T00:52:39.648Z,7.70
2023-05-13T00:57:44.690Z,9.93
2023-05-13T01:02:56.371Z,7.70
2023-05-13T01:08:12.236Z,8.33
2023-05-13T01:13:21.678Z,10.83
2023-05-13T01:18:30.013Z,9.83
2023-05-13T01:23:37.922Z,8.33
2023-05-13T01:28:46.634Z,7.90
2023-05-13T01:33:53.042Z,8.43
2023-05-13T01:39:01.842Z,8.17
2023-05-13T01:44:10.358Z,8.30
2023-05-13T01:49:15.541Z,7.50
2023-05-13T01:54:25.904Z,7.57
2023-05-13T01:59:36.799Z,10.83
2023-05-13T02:04:41.909Z,8.93
2023-05-13T02:09:53.627Z,10.70
2023-05-13T02:14:58.835Z,7.53
2023-05-13T02:20:04.760Z,6.40
2023-05-13T02:25:13.573Z,10.23
2023-05-13T02:30:19.026Z,7.97
2023-05-13T02:35:25.711Z,6.73
2023-05-13T02:40:34.251Z,9.97
2023-05-13T02:45:41.095Z,10.93
2023-05-13T02:50:46.646Z,8.40
2023-05-13T02:55:54.651Z,10.67
2023-05-13T03:01:06.245Z,8.40
2023-05-13T03:06:12.940Z,7.40
2023-05-13T03:11:21.468Z,8.57
2023-05-13T03:16:27.097Z,8.57
2023-05-13T03:21:32.326Z,12.83
2023-05-13T03:26:42.949Z,8.03
2023-05-13T03:31:51.589Z,10.00
2023-05-13T03:36:56.804Z,8.13
2023-05-13T03:42:07.560Z,8.40
2023-05-13T03:47:15.541Z,7.13
2023-05-13T03:52:20.774Z,7.43
2023-05-13T03:57:31.034Z,6.53
2023-05-13T04:02:36.420Z,7.40
2023-05-13T04:07:41.602Z,6.70
2023-05-13T04:12:49.414Z,9.47
2023-05-13T04:17:54.904Z,7.17
2023-05-13T04:23:00.052Z,5.97
2023-05-13T04:28:08.467Z,7.00
2023-05-13T04:33:19.774Z,7.43
2023-05-13T04:38:26.897Z,7.80
2023-05-13T04:43:35.127Z,6.17
2023-05-13T04:48:40.899Z,9.03
2023-05-13T04:53:48.583Z,5.93
2023-05-13T04:58:58.350Z,8.87
2023-05-13T05:04:06.099Z,5.47
2023-05-13T05:09:13.607Z,5.07
2023-05-13T05:14:21.609Z,6.23
2023-05-13T05:19:28.322Z,6.13
2023-05-13T05:24:34.933Z,7.70
2023-05-13T05:29:42.661Z,6.87
2023-05-13T05:34:48.073Z,4.50
2023-05-13T05:39:53.375Z,4.30
2023-05-13T05:45:02.178Z,4.40
2023-05-13T05:50:08.057Z,4.73
2023-05-13T05:55:13.418Z,5.53
2023-05-13T06:00:24.364Z,4.93
2023-05-13T06:05:30.726Z,3.80
2023-05-13T06:10:36.039Z,5.10
2023-05-13T06:15:44.940Z,4.27
2023-05-13T06:20:50.320Z,4.43
2023-05-13T06:25:58.882Z,4.57
2023-05-13T06:31:14.045Z,3.93
2023-05-13T06:36:21.472Z,5.97
2023-05-13T06:41:27.072Z,6.17
2023-05-13T06:46:39.787Z,3.20
2023-05-13T06:51:45.003Z,4.23
2023-05-13T06:56:50.160Z,3.87
2023-05-13T07:01:57.945Z,7.23
2023-05-13T07:07:03.061Z,3.70
2023-05-13T07:12:10.356Z,3.43
2023-05-13T07:17:18.440Z,3.70
2023-05-13T07:22:25.659Z,3.30
2023-05-13T07:27:30.989Z,2.93
2023-05-13T07:32:39.204Z,4.90
2023-05-13T07:37:44.464Z,4.67
2023-05-13T07:42:51.595Z,5.30
2023-05-13T07:47:59.379Z,3.53
2023-05-13T07:53:06.338Z,4.67
2023-05-13T07:58:11.350Z,3.57
2023-05-13T08:03:22.485Z,4.33
2023-05-13T08:08:27.875Z,11.20
2023-05-13T08:13:35.165Z,6.90
2023-05-13T08:18:42.876Z,4.17
2023-05-13T08:23:47.997Z,4.47
2023-05-13T08:28:54.649Z,4.93
2023-05-13T08:34:02.744Z,5.87
2023-05-13T08:39:08.092Z,4.30
2023-05-13T08:44:16.324Z,4.43
2023-05-13T08:49:24.087Z,5.97
2023-05-13T08:54:29.719Z,4.37
2023-05-13T08:59:35.173Z,4.63
2023-05-13T09:04:44.342Z,4.77
2023-05-13T09:09:49.591Z,3.67
2023-05-13T09:14:54.618Z,5.23
2023-05-13T09:20:11.340Z,7.23
2023-05-13T09:25:17.065Z,4.20
2023-05-13T09:30:24.412Z,7.87
2023-05-13T09:35:35.132Z,6.33
2023-05-13T09:40:41.716Z,6.17
2023-05-13T09:45:46.975Z,5.03
2023-05-13T09:50:56.184Z,8.70
2023-05-13T09:56:01.962Z,4.63
2023-05-13T10:01:09.076Z,6.77
2023-05-13T10:06:22.511Z,3.97
2023-05-13T10:11:28.268Z,6.03
2023-05-13T10:16:35.010Z,7.80
2023-05-13T10:21:43.967Z,5.30
2023-05-13T10:26:49.990Z,4.20
2023-05-13T10:31:56.069Z,5.63
2023-05-13T10:37:18.715Z,6.30
2023-05-13T10:42:41.202Z,7.07
2023-05-13T10:47:47.051Z,5.23
2023-05-13T10:53:00.582Z,4.87
2023-05-13T10:58:08.063Z,6.23
2023-05-13T11:03:18.403Z,3.73
2023-05-13T11:08:44.848Z,5.07
2023-05-13T11:13:52.441Z,6.07
2023-05-13T11:18:57.635Z,4.87
2023-05-13T11:24:06.897Z,3.20
2023-05-13T11:29:11.976Z,3.73
2023-05-13T11:34:18.402Z,5.00
2023-05-13T11:39:27.552Z,3.90
2023-05-13T11:44:32.770Z,6.00
2023-05-13T11:49:39.987Z,4.17
2023-05-13T11:54:53.713Z,4.23
2023-05-13T12:00:01.846Z,4.47
2023-05-13T12:05:08.996Z,4.10
2023-05-13T12:10:17.038Z,5.13
2023-05-13T12:15:25.102Z,3.00
2023-05-13T12:20:30.435Z,4.10
2023-05-13T12:25:41.766Z,4.80
2023-05-13T12:30:53.589Z,4.47
2023-05-13T12:36:18.797Z,4.20
2023-05-13T12:41:29.970Z,3.07
2023-05-13T12:46:38.293Z,4.20
2023-05-13T12:51:43.450Z,2.47
2023-05-13T12:56:51.386Z,2.53
2023-05-13T13:01:57.713Z,4.30
2023-05-13T13:07:03.329Z,2.63
2023-05-13T13:12:14.534Z,2.80
2023-05-13T13:17:19.662Z,3.40
2023-05-13T13:22:25.222Z,3.50
2023-05-13T13:27:37.744Z,4.33
2023-05-13T13:32:42.831Z,2.30
2023-05-13T13:37:49.627Z,4.93
2023-05-13T13:43:00.051Z,5.30
2023-05-13T13:48:06.654Z,3.43
2023-05-13T13:53:14.601Z,3.27
2023-05-13T13:58:23.962Z,2.63
2023-05-13T14:03:29.215Z,6.90
2023-05-13T14:08:38.987Z,6.30
2023-05-13T14:13:46.722Z,4.60
2023-05-13T14:18:54.788Z,6.07
2023-05-13T14:24:05.116Z,4.50
2023-05-13T14:29:12.782Z,4.03
2023-05-13T14:34:19.979Z,3.03
2023-05-13T14:39:27.296Z,4.73
2023-05-13T14:44:35.188Z,5.87
2023-05-13T14:49:40.411Z,3.20
2023-05-13T14:54:45.459Z,10.90
2023-05-13T14:59:53.279Z,4.47
2023-05-13T15:04:59.596Z,3.87
2023-05-13T15:10:06.451Z,3.90
2023-05-13T15:15:15.051Z,5.33
2023-05-13T15:20:20.393Z,3.73
2023-05-13T15:25:26.350Z,3.90
2023-05-13T15:30:36.670Z,4.27
2023-05-13T15:35:43.886Z,3.87
2023-05-13T15:40:49.416Z,2.80
2023-05-13T15:46:00.011Z,3.60
2023-05-13T15:51:08.284Z,4.13
2023-05-13T15:56:14.143Z,4.07
2023-05-13T16:01:21.922Z,3.63
2023-05-13T16:06:27.061Z,3.23
2023-05-13T16:11:32.259Z,4.73
2023-05-13T16:16:40.168Z,2.90
2023-05-13T16:21:45.229Z,4.53
2023-05-13T16:26:50.368Z,3.57
2023-05-13T16:32:00.118Z,3.10
2023-05-13T16:37:07.606Z,6.73
2023-05-13T16:42:12.802Z,3.47
2023-05-13T16:47:23.109Z,3.50
2023-05-13T16:52:31.542Z,5.03
2023-05-13T16:57:37.086Z,4.67
2023-05-13T17:02:45.664Z,4.03
2023-05-13T17:07:52.834Z,4.37
2023-05-13T17:12:58.610Z,3.50
2023-05-13T17:18:07.569Z,4.70
2023-05-13T17:23:17.409Z,5.93
2023-05-13T17:28:23.825Z,10.57
2023-05-13T17:33:35.897Z,5.30
2023-05-13T17:38:41.251Z,5.03
2023-05-13T17:43:46.317Z,5.47
2023-05-13T17:48:54.145Z,6.37
2023-05-13T17:54:01.987Z,4.37
2023-05-13T17:59:07.084Z,5.23
2023-05-13T18:04:22.425Z,6.53
2023-05-13T18:09:28.920Z,5.10
2023-05-13T18:14:34.492Z,5.30
2023-05-13T18:19:43.301Z,6.23
2023-05-13T18:24:55.761Z,6.60
2023-05-13T18:30:01.169Z,8.17
2023-05-13T18:35:09.527Z,9.67
2023-05-13T18:40:15.677Z,6.90
2023-05-13T18:45:22.926Z,6.27
2023-05-13T18:50:30.832Z,9.07
2023-05-13T18:55:37.985Z,11.83
2023-05-13T19:00:43.034Z,8.20
2023-05-13T19:05:52.929Z,7.83
2023-05-13T19:10:58.162Z,6.80
2023-05-13T19:16:05.815Z,7.87
2023-05-13T19:21:13.684Z,6.80
2023-05-13T19:26:29.450Z,7.03
2023-05-13T19:31:34.753Z,6.67
2023-05-13T19:36:42.576Z,7.30
2023-05-13T19:41:52.543Z,10.03
2023-05-13T19:46:57.797Z,7.13
2023-05-13T19:52:06.678Z,6.97
2023-05-13T19:57:11.678Z,7.03
2023-05-13T20:02:17.114Z,6.13
2023-05-13T20:07:27.128Z,6.23
2023-05-13T20:12:34.401Z,9.87
2023-05-13T20:17:39.808Z,8.43
2023-05-13T20:22:47.622Z,6.87
2023-05-13T20:27:52.791Z,9.57
2023-05-13T20:33:00.298Z,9.00
2023-05-13T20:38:11.216Z,9.93
2023-05-13T20:43:17.181Z,16.13
2023-05-13T20:48:22.336Z,21.63
2023-05-13T20:53:37.448Z,27.97
2023-05-13T20:58:42.654Z,16.87
2023-05-13T21:03:50.047Z,14.53
2023-05-13T21:08:58.689Z,15.83
2023-05-13T21:14:05.573Z,12.07
2023-05-13T21:19:25.402Z,15.13
2023-05-13T21:24:33.068Z,13.20
2023-05-13T21:29:38.289Z,10.60
2023-05-13T21:34:45.373Z,11.80
2023-05-13T21:39:53.067Z,10.43
2023-05-13T21:45:00.615Z,10.20
2023-05-13T21:50:06.485Z,8.03
2023-05-13T21:55:14.410Z,10.23
2023-05-13T22:00:29.058Z,10.13
2023-05-13T22:05:34.291Z,8.70
2023-05-13T22:10:42.430Z,11.30
2023-05-13T22:15:47.808Z,8.93
2023-05-13T22:20:52.971Z,11.50
2023-05-13T22:26:01.483Z,11.23
2023-05-13T22:31:07.246Z,11.13
2023-05-13T22:36:15.688Z,13.63
2023-05-13T22:41:24.020Z,12.93
2023-05-13T22:46:31.462Z,12.30
2023-05-13T22:51:39.123Z,11.90
2023-05-13T22:56:47.988Z,13.20
2023-05-13T23:02:00.624Z,12.03
2023-05-13T23:07:07.896Z,12.57
2023-05-13T23:12:22.054Z,12.27
2023-05-13T23:17:29.433Z,11.60
2023-05-13T23:22:38.729Z,11.93
2023-05-13T23:27:46.484Z,13.13
2023-05-13T23:32:51.622Z,12.33
2023-05-13T23:37:56.889Z,13.27
2023-05-13T23:43:06.864Z,12.07
2023-05-13T23:48:14.905Z,16.27
2023-05-13T23:53:21.059Z,11.90
2023-05-13T23:58:29.790Z,12.63
